KGWO

Greenwood-Leflore Airport

Greenwood, Mississippi, USA
METAR KGWO 141253Z AUTO 00000KT 10SM CLR 23/22 A3004 RMK AO2 SLP171 T02330217
Observed Flight Rules
Aug-14 @ 12:53 UTC (48 minutes ago) Visual Flight Rules
Visibility Clouds
10 miles
  • Clear skies
Temperatures Readings
Current 23°C / 73°F
Dewpoint 22°C / 72°F
Humidity 94%
Altimeter 30.04" Hg
Pressure 1017.1 hPa
Elevation 44
METAR KGWO 141253Z AUTO 00000KT 10SM CLR 23/22 A3004 RMK AO2 SLP171 T02330217
Observed Flight Rules
Aug-14 @ 12:53 UTC
(48 minutes ago)
VFR
Clouds
  • Clear skies
Temperature Dewpoint
23°C / 73°F 22°C / 72°F
Humidity Altimeter Pressure
94% 30.04" Hg 1017.1 hPa